sensor_id;sensor_type;location;lat;lon;timestamp;pressure;altitude;pressure_sealevel;temperature;humidity
43298;BME280;28892;55.640;37.532;2023-05-09T00:00:41;100278.38;;;8.51;33.79
43298;BME280;28892;55.640;37.532;2023-05-09T00:03:09;100263.19;;;8.44;34.55
43298;BME280;28892;55.640;37.532;2023-05-09T00:05:37;100275.28;;;8.46;35.28
43298;BME280;28892;55.640;37.532;2023-05-09T00:08:04;100286.97;;;8.44;35.15
43298;BME280;28892;55.640;37.532;2023-05-09T00:10:30;100275.72;;;8.32;36.57
43298;BME280;28892;55.640;37.532;2023-05-09T00:12:57;100270.59;;;8.30;36.64
43298;BME280;28892;55.640;37.532;2023-05-09T00:15:29;100271.81;;;8.26;36.76
43298;BME280;28892;55.640;37.532;2023-05-09T00:17:58;100275.88;;;8.20;37.16
43298;BME280;28892;55.640;37.532;2023-05-09T00:20:26;100281.84;;;8.22;35.96
43298;BME280;28892;55.640;37.532;2023-05-09T00:27:01;100280.88;;;8.23;37.53
43298;BME280;28892;55.640;37.532;2023-05-09T00:29:28;100277.97;;;8.07;36.15
43298;BME280;28892;55.640;37.532;2023-05-09T00:32:02;100275.88;;;8.10;37.29
43298;BME280;28892;55.640;37.532;2023-05-09T00:34:50;100287.72;;;8.16;35.26
43298;BME280;28892;55.640;37.532;2023-05-09T00:37:22;100283.41;;;8.15;35.95
43298;BME280;28892;55.640;37.532;2023-05-09T00:43:17;100277.13;;;8.06;35.10
43298;BME280;28892;55.640;37.532;2023-05-09T00:45:51;100274.63;;;8.05;37.68
43298;BME280;28892;55.640;37.532;2023-05-09T00:48:32;100282.97;;;8.00;38.39
43298;BME280;28892;55.640;37.532;2023-05-09T00:54:27;100296.44;;;7.87;37.99
43298;BME280;28892;55.640;37.532;2023-05-09T01:00:12;100291.28;;;7.86;37.42
43298;BME280;28892;55.640;37.532;2023-05-09T01:02:45;100282.28;;;7.88;37.00
43298;BME280;28892;55.640;37.532;2023-05-09T01:05:14;100265.56;;;7.78;37.27
43298;BME280;28892;55.640;37.532;2023-05-09T01:07:45;100283.81;;;7.91;37.16
43298;BME280;28892;55.640;37.532;2023-05-09T01:10:29;100274.91;;;7.82;38.07
43298;BME280;28892;55.640;37.532;2023-05-09T01:13:12;100279.06;;;7.85;38.18
43298;BME280;28892;55.640;37.532;2023-05-09T01:16:07;100290.22;;;7.98;36.87
43298;BME280;28892;55.640;37.532;2023-05-09T01:18:56;100289.09;;;8.01;37.13
43298;BME280;28892;55.640;37.532;2023-05-09T01:21:28;100295.47;;;7.88;37.38
43298;BME280;28892;55.640;37.532;2023-05-09T01:26:46;100281.59;;;7.76;38.98
43298;BME280;28892;55.640;37.532;2023-05-09T01:31:56;100288.78;;;7.64;39.21
43298;BME280;28892;55.640;37.532;2023-05-09T01:34:25;100285.72;;;7.59;38.48
43298;BME280;28892;55.640;37.532;2023-05-09T01:36:55;100286.56;;;7.60;40.38
43298;BME280;28892;55.640;37.532;2023-05-09T01:39:23;100289.88;;;7.52;40.22
43298;BME280;28892;55.640;37.532;2023-05-09T01:41:54;100290.97;;;7.39;40.31
43298;BME280;28892;55.640;37.532;2023-05-09T01:44:22;100283.84;;;7.30;39.67
43298;BME280;28892;55.640;37.532;2023-05-09T01:46:49;100283.16;;;7.38;39.87
43298;BME280;28892;55.640;37.532;2023-05-09T01:49:17;100287.06;;;7.34;39.55
43298;BME280;28892;55.640;37.532;2023-05-09T01:51:46;100291.78;;;7.40;39.94
43298;BME280;28892;55.640;37.532;2023-05-09T01:54:17;100301.13;;;7.44;40.41
43298;BME280;28892;55.640;37.532;2023-05-09T01:56:49;100287.47;;;7.29;40.38
43298;BME280;28892;55.640;37.532;2023-05-09T01:59:16;100295.09;;;7.32;40.34
43298;BME280;28892;55.640;37.532;2023-05-09T02:01:43;100293.59;;;7.39;39.55
43298;BME280;28892;55.640;37.532;2023-05-09T02:04:12;100298.03;;;7.39;39.62
43298;BME280;28892;55.640;37.532;2023-05-09T02:06:42;100303.88;;;7.43;39.16
43298;BME280;28892;55.640;37.532;2023-05-09T02:09:10;100285.50;;;7.31;39.72
43298;BME280;28892;55.640;37.532;2023-05-09T02:11:40;100286.78;;;7.37;39.62
43298;BME280;28892;55.640;37.532;2023-05-09T02:14:09;100293.16;;;7.34;39.51
43298;BME280;28892;55.640;37.532;2023-05-09T02:16:41;100294.28;;;7.32;39.23
43298;BME280;28892;55.640;37.532;2023-05-09T02:19:12;100288.31;;;7.39;38.93
43298;BME280;28892;55.640;37.532;2023-05-09T02:21:38;100299.16;;;7.46;38.63
43298;BME280;28892;55.640;37.532;2023-05-09T02:24:05;100283.91;;;7.50;38.18
43298;BME280;28892;55.640;37.532;2023-05-09T02:26:31;100281.25;;;7.50;38.04
43298;BME280;28892;55.640;37.532;2023-05-09T02:29:01;100295.97;;;7.52;37.86
43298;BME280;28892;55.640;37.532;2023-05-09T02:31:32;100291.25;;;7.56;38.75
43298;BME280;28892;55.640;37.532;2023-05-09T02:34:01;100292.81;;;7.59;38.09
43298;BME280;28892;55.640;37.532;2023-05-09T02:36:29;100296.53;;;7.56;39.10
43298;BME280;28892;55.640;37.532;2023-05-09T02:38:56;100293.78;;;7.58;39.08
43298;BME280;28892;55.640;37.532;2023-05-09T02:41:22;100296.53;;;7.56;38.92
43298;BME280;28892;55.640;37.532;2023-05-09T02:43:53;100305.47;;;7.65;39.16
43298;BME280;28892;55.640;37.532;2023-05-09T02:46:21;100302.84;;;7.75;37.56
43298;BME280;28892;55.640;37.532;2023-05-09T02:48:46;100289.22;;;7.69;38.42
43298;BME280;28892;55.640;37.532;2023-05-09T02:51:15;100298.13;;;7.78;38.49
43298;BME280;28892;55.640;37.532;2023-05-09T02:53:43;100296.59;;;7.76;37.08
43298;BME280;28892;55.640;37.532;2023-05-09T02:56:09;100297.16;;;7.79;39.08
43298;BME280;28892;55.640;37.532;2023-05-09T02:58:38;100299.66;;;7.81;37.24
43298;BME280;28892;55.640;37.532;2023-05-09T03:01:04;100299.78;;;7.89;38.41
43298;BME280;28892;55.640;37.532;2023-05-09T03:03:33;100297.31;;;7.88;37.16
43298;BME280;28892;55.640;37.532;2023-05-09T03:06:01;100307.16;;;7.95;38.33
43298;BME280;28892;55.640;37.532;2023-05-09T03:08:32;100309.66;;;8.17;36.99
43298;BME280;28892;55.640;37.532;2023-05-09T03:11:00;100312.88;;;8.20;37.11
43298;BME280;28892;55.640;37.532;2023-05-09T03:13:30;100300.06;;;8.16;37.80
43298;BME280;28892;55.640;37.532;2023-05-09T03:16:05;100301.59;;;8.28;36.99
43298;BME280;28892;55.640;37.532;2023-05-09T03:18:31;100314.66;;;8.39;36.93
43298;BME280;28892;55.640;37.532;2023-05-09T03:21:05;100304.63;;;8.43;35.88
43298;BME280;28892;55.640;37.532;2023-05-09T03:23:40;100307.03;;;8.46;35.50
43298;BME280;28892;55.640;37.532;2023-05-09T03:26:21;100299.38;;;8.53;35.33
43298;BME280;28892;55.640;37.532;2023-05-09T03:28:52;100315.91;;;8.65;35.46
43298;BME280;28892;55.640;37.532;2023-05-09T03:31:18;100301.44;;;8.69;35.22
43298;BME280;28892;55.640;37.532;2023-05-09T03:33:45;100305.75;;;8.70;34.96
43298;BME280;28892;55.640;37.532;2023-05-09T03:36:11;100307.56;;;8.70;35.10
43298;BME280;28892;55.640;37.532;2023-05-09T03:38:42;100309.94;;;8.73;34.96
43298;BME280;28892;55.640;37.532;2023-05-09T03:41:15;100328.25;;;8.94;34.90
43298;BME280;28892;55.640;37.532;2023-05-09T03:43:45;100324.31;;;8.98;35.03
43298;BME280;28892;55.640;37.532;2023-05-09T03:46:11;100319.75;;;9.00;34.76
43298;BME280;28892;55.640;37.532;2023-05-09T03:48:43;100313.47;;;9.01;34.54
43298;BME280;28892;55.640;37.532;2023-05-09T03:51:19;100321.22;;;9.13;34.58
43298;BME280;28892;55.640;37.532;2023-05-09T03:54:13;100328.19;;;9.42;34.46
43298;BME280;28892;55.640;37.532;2023-05-09T03:56:39;100319.75;;;9.28;34.35
43298;BME280;28892;55.640;37.532;2023-05-09T03:59:17;100325.44;;;9.33;34.14
43298;BME280;28892;55.640;37.532;2023-05-09T04:01:50;100315.97;;;9.31;33.94
43298;BME280;28892;55.640;37.532;2023-05-09T04:04:25;100314.81;;;9.43;33.48
43298;BME280;28892;55.640;37.532;2023-05-09T04:07:04;100315.47;;;9.45;33.66
43298;BME280;28892;55.640;37.532;2023-05-09T04:09:43;100322.78;;;9.61;33.47
43298;BME280;28892;55.640;37.532;2023-05-09T04:12:09;100320.81;;;9.63;33.86
43298;BME280;28892;55.640;37.532;2023-05-09T04:14:46;100327.28;;;9.79;33.46
43298;BME280;28892;55.640;37.532;2023-05-09T04:17:12;100324.28;;;9.92;33.47
43298;BME280;28892;55.640;37.532;2023-05-09T04:19:44;100334.41;;;9.97;33.24
43298;BME280;28892;55.640;37.532;2023-05-09T04:22:10;100332.81;;;10.04;33.24
43298;BME280;28892;55.640;37.532;2023-05-09T04:24:36;100324.78;;;9.96;33.08
43298;BME280;28892;55.640;37.532;2023-05-09T04:27:02;100337.06;;;10.15;33.31
43298;BME280;28892;55.640;37.532;2023-05-09T04:29:28;100336.44;;;10.21;33.57
43298;BME280;28892;55.640;37.532;2023-05-09T04:31:55;100328.44;;;10.49;32.92
43298;BME280;28892;55.640;37.532;2023-05-09T04:34:24;100343.31;;;10.68;32.57
43298;BME280;28892;55.640;37.532;2023-05-09T04:36:54;100347.59;;;10.87;32.53
43298;BME280;28892;55.640;37.532;2023-05-09T04:39:20;100344.72;;;11.07;32.50
43298;BME280;28892;55.640;37.532;2023-05-09T04:41:55;100345.81;;;11.23;31.99
43298;BME280;28892;55.640;37.532;2023-05-09T04:44:21;100345.56;;;11.42;31.88
43298;BME280;28892;55.640;37.532;2023-05-09T04:46:49;100338.69;;;11.66;31.68
43298;BME280;28892;55.640;37.532;2023-05-09T04:49:16;100340.25;;;11.94;31.19
43298;BME280;28892;55.640;37.532;2023-05-09T04:51:44;100331.81;;;12.15;30.85
43298;BME280;28892;55.640;37.532;2023-05-09T04:54:10;100342.28;;;12.33;30.14
43298;BME280;28892;55.640;37.532;2023-05-09T04:56:41;100332.97;;;12.62;29.84
43298;BME280;28892;55.640;37.532;2023-05-09T04:59:07;100331.28;;;12.78;29.26
43298;BME280;28892;55.640;37.532;2023-05-09T05:01:36;100343.56;;;12.87;29.79
43298;BME280;28892;55.640;37.532;2023-05-09T05:04:02;100337.56;;;13.02;28.89
43298;BME280;28892;55.640;37.532;2023-05-09T05:06:31;100332.19;;;13.10;28.76
43298;BME280;28892;55.640;37.532;2023-05-09T05:09:05;100328.38;;;13.12;29.33
43298;BME280;28892;55.640;37.532;2023-05-09T05:11:31;100335.63;;;13.35;28.30
43298;BME280;28892;55.640;37.532;2023-05-09T05:13:57;100336.47;;;13.44;28.13
43298;BME280;28892;55.640;37.532;2023-05-09T05:16:26;100330.03;;;13.62;27.68
43298;BME280;28892;55.640;37.532;2023-05-09T05:18:52;100335.44;;;13.77;27.96
43298;BME280;28892;55.640;37.532;2023-05-09T05:21:19;100331.50;;;13.96;27.36
43298;BME280;28892;55.640;37.532;2023-05-09T05:23:47;100343.25;;;14.10;27.62
43298;BME280;28892;55.640;37.532;2023-05-09T05:26:14;100344.25;;;14.09;27.70
43298;BME280;28892;55.640;37.532;2023-05-09T05:28:40;100345.38;;;14.15;27.98
43298;BME280;28892;55.640;37.532;2023-05-09T05:31:06;100343.06;;;14.11;28.66
43298;BME280;28892;55.640;37.532;2023-05-09T05:33:34;100336.94;;;14.26;28.59
43298;BME280;28892;55.640;37.532;2023-05-09T05:36:01;100342.63;;;14.46;28.21
43298;BME280;28892;55.640;37.532;2023-05-09T05:38:30;100335.38;;;14.55;27.23
43298;BME280;28892;55.640;37.532;2023-05-09T05:40:58;100344.13;;;14.64;26.19
43298;BME280;28892;55.640;37.532;2023-05-09T05:43:25;100337.78;;;14.65;26.68
43298;BME280;28892;55.640;37.532;2023-05-09T05:45:52;100338.16;;;14.85;27.99
43298;BME280;28892;55.640;37.532;2023-05-09T05:48:26;100340.06;;;14.91;28.27
43298;BME280;28892;55.640;37.532;2023-05-09T05:50:56;100341.66;;;15.16;26.95
43298;BME280;28892;55.640;37.532;2023-05-09T05:53:25;100333.53;;;15.39;27.26
43298;BME280;28892;55.640;37.532;2023-05-09T05:56:08;100332.22;;;15.35;27.15
43298;BME280;28892;55.640;37.532;2023-05-09T05:58:34;100339.22;;;15.36;27.16
43298;BME280;28892;55.640;37.532;2023-05-09T06:01:23;100336.41;;;15.74;26.95
43298;BME280;28892;55.640;37.532;2023-05-09T06:04:17;100334.53;;;15.75;26.12
43298;BME280;28892;55.640;37.532;2023-05-09T06:06:49;100323.91;;;15.82;25.70
43298;BME280;28892;55.640;37.532;2023-05-09T06:09:29;100334.03;;;16.01;25.47
43298;BME280;28892;55.640;37.532;2023-05-09T06:12:18;100326.63;;;16.25;25.19
43298;BME280;28892;55.640;37.532;2023-05-09T06:15:28;100329.97;;;16.27;24.58
43298;BME280;28892;55.640;37.532;2023-05-09T06:18:25;100325.94;;;15.79;25.28
43298;BME280;28892;55.640;37.532;2023-05-09T06:21:05;100323.91;;;15.82;24.80
43298;BME280;28892;55.640;37.532;2023-05-09T06:23:35;100315.56;;;15.70;24.84
43298;BME280;28892;55.640;37.532;2023-05-09T06:26:35;100320.81;;;15.78;25.00
43298;BME280;28892;55.640;37.532;2023-05-09T06:29:10;100314.59;;;15.92;25.37
43298;BME280;28892;55.640;37.532;2023-05-09T06:31:59;100306.38;;;16.16;25.60
43298;BME280;28892;55.640;37.532;2023-05-09T06:35:14;100310.81;;;15.87;24.85
43298;BME280;28892;55.640;37.532;2023-05-09T06:37:44;100308.41;;;15.92;25.07
43298;BME280;28892;55.640;37.532;2023-05-09T06:40:30;100312.94;;;15.91;25.71
43298;BME280;28892;55.640;37.532;2023-05-09T06:42:56;100294.34;;;15.16;25.29
43298;BME280;28892;55.640;37.532;2023-05-09T06:45:24;100306.63;;;15.11;25.69
43298;BME280;28892;55.640;37.532;2023-05-09T06:47:52;100302.75;;;14.83;25.75
43298;BME280;28892;55.640;37.532;2023-05-09T06:50:18;100300.31;;;14.58;26.18
43298;BME280;28892;55.640;37.532;2023-05-09T06:52:50;100299.75;;;14.63;26.39
43298;BME280;28892;55.640;37.532;2023-05-09T06:55:24;100293.72;;;15.14;24.77
43298;BME280;28892;55.640;37.532;2023-05-09T06:57:56;100285.44;;;15.61;24.64
43298;BME280;28892;55.640;37.532;2023-05-09T07:00:22;100294.09;;;15.26;24.36
43298;BME280;28892;55.640;37.532;2023-05-09T07:02:48;100301.75;;;14.46;25.99
43298;BME280;28892;55.640;37.532;2023-05-09T07:05:30;100297.72;;;14.11;27.06
43298;BME280;28892;55.640;37.532;2023-05-09T07:07:59;100297.47;;;13.75;27.81
43298;BME280;28892;55.640;37.532;2023-05-09T07:10:37;100298.63;;;14.19;27.27
43298;BME280;28892;55.640;37.532;2023-05-09T07:13:07;100279.03;;;14.50;26.56
43298;BME280;28892;55.640;37.532;2023-05-09T07:15:35;100288.69;;;15.04;26.46
43298;BME280;28892;55.640;37.532;2023-05-09T07:18:01;100289.31;;;14.91;25.69
43298;BME280;28892;55.640;37.532;2023-05-09T07:20:32;100282.25;;;14.60;26.42
43298;BME280;28892;55.640;37.532;2023-05-09T07:23:08;100273.75;;;14.95;25.70
43298;BME280;28892;55.640;37.532;2023-05-09T07:25:37;100285.28;;;14.80;25.99
43298;BME280;28892;55.640;37.532;2023-05-09T07:28:06;100272.59;;;14.59;26.09
43298;BME280;28892;55.640;37.532;2023-05-09T07:30:42;100277.28;;;14.42;26.03
43298;BME280;28892;55.640;37.532;2023-05-09T07:33:14;100281.31;;;14.38;26.49
43298;BME280;28892;55.640;37.532;2023-05-09T07:35:40;100277.28;;;14.19;26.85
43298;BME280;28892;55.640;37.532;2023-05-09T07:38:06;100266.50;;;14.12;27.87
43298;BME280;28892;55.640;37.532;2023-05-09T07:40:35;100272.41;;;14.46;25.87
43298;BME280;28892;55.640;37.532;2023-05-09T07:43:20;100274.97;;;14.39;25.98
43298;BME280;28892;55.640;37.532;2023-05-09T07:45:47;100269.91;;;14.44;26.51
43298;BME280;28892;55.640;37.532;2023-05-09T07:48:19;100262.72;;;14.30;25.69
43298;BME280;28892;55.640;37.532;2023-05-09T07:50:50;100271.25;;;14.25;25.29
43298;BME280;28892;55.640;37.532;2023-05-09T07:53:24;100263.06;;;14.27;26.08
43298;BME280;28892;55.640;37.532;2023-05-09T07:55:54;100271.25;;;14.02;26.55
43298;BME280;28892;55.640;37.532;2023-05-09T07:58:27;100267.16;;;14.14;26.35
43298;BME280;28892;55.640;37.532;2023-05-09T08:01:03;100251.72;;;14.09;26.64
43298;BME280;28892;55.640;37.532;2023-05-09T08:03:40;100253.56;;;13.86;25.47
43298;BME280;28892;55.640;37.532;2023-05-09T08:06:12;100251.78;;;13.78;26.33
43298;BME280;28892;55.640;37.532;2023-05-09T08:08:41;100252.66;;;13.70;25.74
43298;BME280;28892;55.640;37.532;2023-05-09T08:11:13;100248.88;;;14.26;25.68
43298;BME280;28892;55.640;37.532;2023-05-09T08:13:42;100246.81;;;14.51;25.42
43298;BME280;28892;55.640;37.532;2023-05-09T08:16:14;100248.09;;;14.71;24.45
43298;BME280;28892;55.640;37.532;2023-05-09T08:18:43;100237.31;;;14.34;24.17
43298;BME280;28892;55.640;37.532;2023-05-09T08:21:20;100232.06;;;14.25;25.00
43298;BME280;28892;55.640;37.532;2023-05-09T08:23:46;100230.69;;;14.30;25.38
43298;BME280;28892;55.640;37.532;2023-05-09T08:26:14;100230.78;;;14.36;25.22
43298;BME280;28892;55.640;37.532;2023-05-09T08:28:43;100230.28;;;15.01;24.37
43298;BME280;28892;55.640;37.532;2023-05-09T08:31:12;100223.00;;;15.90;23.71
43298;BME280;28892;55.640;37.532;2023-05-09T08:33:45;100222.22;;;16.54;23.40
43298;BME280;28892;55.640;37.532;2023-05-09T08:36:11;100217.19;;;16.79;22.26
43298;BME280;28892;55.640;37.532;2023-05-09T08:38:37;100216.03;;;16.53;22.69
43298;BME280;28892;55.640;37.532;2023-05-09T08:41:05;100213.19;;;16.26;23.34
43298;BME280;28892;55.640;37.532;2023-05-09T08:43:34;100211.38;;;15.83;24.20
43298;BME280;28892;55.640;37.532;2023-05-09T08:46:10;100217.81;;;15.45;24.17
43298;BME280;28892;55.640;37.532;2023-05-09T08:49:07;100205.63;;;15.43;23.61
43298;BME280;28892;55.640;37.532;2023-05-09T08:51:34;100205.28;;;15.09;23.73
43298;BME280;28892;55.640;37.532;2023-05-09T08:54:53;100204.50;;;15.74;24.27
43298;BME280;28892;55.640;37.532;2023-05-09T08:57:45;100191.22;;;15.87;22.60
43298;BME280;28892;55.640;37.532;2023-05-09T09:00:14;100202.34;;;15.62;23.23
43298;BME280;28892;55.640;37.532;2023-05-09T09:03:01;100199.94;;;15.68;22.22
43298;BME280;28892;55.640;37.532;2023-05-09T09:05:32;100182.47;;;15.50;22.01
43298;BME280;28892;55.640;37.532;2023-05-09T09:08:03;100173.44;;;15.95;22.08
43298;BME280;28892;55.640;37.532;2023-05-09T09:10:38;100175.28;;;16.23;21.46
43298;BME280;28892;55.640;37.532;2023-05-09T09:13:09;100170.22;;;16.41;22.45
43298;BME280;28892;55.640;37.532;2023-05-09T09:15:43;100185.75;;;17.77;21.63
43298;BME280;28892;55.640;37.532;2023-05-09T09:18:14;100175.50;;;18.67;20.29
43298;BME280;28892;55.640;37.532;2023-05-09T09:20:47;100170.25;;;18.85;19.18
43298;BME280;28892;55.640;37.532;2023-05-09T09:23:18;100162.06;;;18.74;19.65
43298;BME280;28892;55.640;37.532;2023-05-09T09:25:47;100164.28;;;17.77;20.40
43298;BME280;28892;55.640;37.532;2023-05-09T09:28:14;100179.34;;;17.51;21.13
43298;BME280;28892;55.640;37.532;2023-05-09T09:30:45;100169.97;;;17.20;21.48
43298;BME280;28892;55.640;37.532;2023-05-09T09:33:23;100172.84;;;17.12;21.49
43298;BME280;28892;55.640;37.532;2023-05-09T09:35:50;100161.09;;;16.64;21.54
43298;BME280;28892;55.640;37.532;2023-05-09T09:38:18;100162.53;;;16.25;22.07
43298;BME280;28892;55.640;37.532;2023-05-09T09:40:54;100166.09;;;16.32;21.94
43298;BME280;28892;55.640;37.532;2023-05-09T09:43:31;100163.31;;;16.18;22.46
43298;BME280;28892;55.640;37.532;2023-05-09T09:46:05;100162.66;;;15.88;22.61
43298;BME280;28892;55.640;37.532;2023-05-09T09:51:34;100155.00;;;15.56;22.85
43298;BME280;28892;55.640;37.532;2023-05-09T09:54:06;100154.22;;;15.62;22.78
43298;BME280;28892;55.640;37.532;2023-05-09T09:56:42;100161.91;;;15.72;23.11
43298;BME280;28892;55.640;37.532;2023-05-09T09:59:16;100154.34;;;15.54;23.54
43298;BME280;28892;55.640;37.532;2023-05-09T10:02:03;100153.59;;;15.89;23.06
43298;BME280;28892;55.640;37.532;2023-05-09T10:04:38;100162.75;;;15.51;22.95
43298;BME280;28892;55.640;37.532;2023-05-09T10:07:08;100155.19;;;15.33;22.82
43298;BME280;28892;55.640;37.532;2023-05-09T10:09:58;100157.22;;;15.53;22.99
43298;BME280;28892;55.640;37.532;2023-05-09T10:12:33;100147.38;;;15.16;23.24
43298;BME280;28892;55.640;37.532;2023-05-09T10:15:06;100165.47;;;15.36;23.52
43298;BME280;28892;55.640;37.532;2023-05-09T10:17:37;100153.66;;;15.45;23.02
43298;BME280;28892;55.640;37.532;2023-05-09T10:20:06;100144.41;;;15.26;22.28
43298;BME280;28892;55.640;37.532;2023-05-09T10:22:44;100153.63;;;15.23;22.40
43298;BME280;28892;55.640;37.532;2023-05-09T10:25:26;100140.38;;;15.15;22.34
43298;BME280;28892;55.640;37.532;2023-05-09T10:27:54;100157.75;;;15.04;23.51
43298;BME280;28892;55.640;37.532;2023-05-09T10:30:30;100144.75;;;14.79;22.76
43298;BME280;28892;55.640;37.532;2023-05-09T10:33:07;100141.88;;;14.81;24.24
43298;BME280;28892;55.640;37.532;2023-05-09T10:35:45;100138.63;;;14.86;22.81
43298;BME280;28892;55.640;37.532;2023-05-09T10:38:17;100133.50;;;14.69;23.45
43298;BME280;28892;55.640;37.532;2023-05-09T10:40:49;100130.72;;;14.77;22.69
43298;BME280;28892;55.640;37.532;2023-05-09T10:43:19;100134.13;;;14.86;23.41
43298;BME280;28892;55.640;37.532;2023-05-09T10:45:46;100125.38;;;15.14;23.61
43298;BME280;28892;55.640;37.532;2023-05-09T10:48:15;100118.31;;;15.28;22.83
43298;BME280;28892;55.640;37.532;2023-05-09T10:50:42;100109.59;;;16.20;22.35
43298;BME280;28892;55.640;37.532;2023-05-09T10:53:47;100108.50;;;17.05;20.39
43298;BME280;28892;55.640;37.532;2023-05-09T10:56:32;100112.47;;;17.36;20.73
43298;BME280;28892;55.640;37.532;2023-05-09T10:59:03;100103.81;;;16.58;20.57
43298;BME280;28892;55.640;37.532;2023-05-09T11:01:39;100101.75;;;17.29;21.16
43298;BME280;28892;55.640;37.532;2023-05-09T11:04:16;100104.63;;;17.82;21.32
43298;BME280;28892;55.640;37.532;2023-05-09T11:06:58;100092.63;;;18.11;20.65
43298;BME280;28892;55.640;37.532;2023-05-09T11:09:42;100085.16;;;18.73;20.87
43298;BME280;28892;55.640;37.532;2023-05-09T11:12:18;100089.06;;;18.77;19.64
43298;BME280;28892;55.640;37.532;2023-05-09T11:15:03;100080.78;;;18.39;20.79
43298;BME280;28892;55.640;37.532;2023-05-09T11:17:37;100083.16;;;17.82;20.66
43298;BME280;28892;55.640;37.532;2023-05-09T11:20:31;100078.44;;;17.30;21.14
43298;BME280;28892;55.640;37.532;2023-05-09T11:23:08;100084.50;;;16.83;21.08
43298;BME280;28892;55.640;37.532;2023-05-09T11:25:41;100074.44;;;16.99;21.24
43298;BME280;28892;55.640;37.532;2023-05-09T11:28:40;100083.94;;;18.16;20.37
43298;BME280;28892;55.640;37.532;2023-05-09T11:31:13;100068.13;;;18.53;19.73
43298;BME280;28892;55.640;37.532;2023-05-09T11:34:21;100078.63;;;18.94;19.63
43298;BME280;28892;55.640;37.532;2023-05-09T11:37:06;100072.66;;;19.24;19.72
43298;BME280;28892;55.640;37.532;2023-05-09T11:39:35;100066.69;;;19.47;19.01
43298;BME280;28892;55.640;37.532;2023-05-09T11:42:02;100053.56;;;19.32;18.30
43298;BME280;28892;55.640;37.532;2023-05-09T11:44:31;100048.59;;;19.54;17.88
43298;BME280;28892;55.640;37.532;2023-05-09T11:47:03;100055.06;;;20.16;17.96
43298;BME280;28892;55.640;37.532;2023-05-09T11:49:29;100050.47;;;19.98;17.71
43298;BME280;28892;55.640;37.532;2023-05-09T11:52:01;100045.97;;;19.92;17.95
43298;BME280;28892;55.640;37.532;2023-05-09T11:54:29;100041.91;;;19.64;18.03
43298;BME280;28892;55.640;37.532;2023-05-09T11:57:01;100038.81;;;19.60;18.36
43298;BME280;28892;55.640;37.532;2023-05-09T11:59:42;100043.75;;;19.45;18.39
43298;BME280;28892;55.640;37.532;2023-05-09T12:02:12;100042.03;;;19.25;19.06
43298;BME280;28892;55.640;37.532;2023-05-09T12:04:52;100036.19;;;19.53;18.72
43298;BME280;28892;55.640;37.532;2023-05-09T12:07:26;100039.00;;;19.65;18.59
43298;BME280;28892;55.640;37.532;2023-05-09T12:10:22;100028.19;;;19.21;19.15
43298;BME280;28892;55.640;37.532;2023-05-09T12:13:25;100030.63;;;18.65;20.16
43298;BME280;28892;55.640;37.532;2023-05-09T12:20:11;100021.50;;;17.62;20.42
43298;BME280;28892;55.640;37.532;2023-05-09T12:27:27;100012.19;;;17.57;20.52
43298;BME280;28892;55.640;37.532;2023-05-09T12:30:58;100009.69;;;17.76;19.98
43298;BME280;28892;55.640;37.532;2023-05-09T12:34:24;100021.88;;;17.72;19.94
43298;BME280;28892;55.640;37.532;2023-05-09T12:42:12;100000.16;;;17.87;19.85
43298;BME280;28892;55.640;37.532;2023-05-09T12:46:08;100006.22;;;17.55;19.67
43298;BME280;28892;55.640;37.532;2023-05-09T12:48:51;99990.66;;;17.91;19.91
43298;BME280;28892;55.640;37.532;2023-05-09T12:52:16;99984.13;;;17.60;21.07
43298;BME280;28892;55.640;37.532;2023-05-09T12:54:47;99977.19;;;17.05;20.44
43298;BME280;28892;55.640;37.532;2023-05-09T12:57:40;99982.34;;;17.13;19.95
43298;BME280;28892;55.640;37.532;2023-05-09T13:05:23;99969.50;;;16.82;19.94
43298;BME280;28892;55.640;37.532;2023-05-09T13:09:04;99966.53;;;16.29;20.90
43298;BME280;28892;55.640;37.532;2023-05-09T13:15:43;99953.06;;;15.67;21.34
43298;BME280;28892;55.640;37.532;2023-05-09T13:34:28;99950.75;;;15.57;21.58
43298;BME280;28892;55.640;37.532;2023-05-09T13:41:27;99945.28;;;15.37;21.89
43298;BME280;28892;55.640;37.532;2023-05-09T13:43:56;99943.19;;;15.32;22.26
43298;BME280;28892;55.640;37.532;2023-05-09T13:46:54;99925.03;;;15.21;22.00
43298;BME280;28892;55.640;37.532;2023-05-09T13:49:27;99931.38;;;15.20;22.18
43298;BME280;28892;55.640;37.532;2023-05-09T13:52:14;99926.47;;;15.23;22.16
43298;BME280;28892;55.640;37.532;2023-05-09T13:54:56;99921.06;;;15.10;22.06
43298;BME280;28892;55.640;37.532;2023-05-09T13:57:48;99935.28;;;15.17;22.41
43298;BME280;28892;55.640;37.532;2023-05-09T14:01:05;99936.16;;;14.96;22.70
43298;BME280;28892;55.640;37.532;2023-05-09T14:04:06;99927.97;;;14.76;22.75
43298;BME280;28892;55.640;37.532;2023-05-09T14:06:41;99923.53;;;14.68;23.24
43298;BME280;28892;55.640;37.532;2023-05-09T14:09:56;99925.50;;;14.74;23.06
43298;BME280;28892;55.640;37.532;2023-05-09T14:12:38;99922.81;;;14.52;23.33
43298;BME280;28892;55.640;37.532;2023-05-09T14:20:12;99907.69;;;14.60;23.00
43298;BME280;28892;55.640;37.532;2023-05-09T14:22:55;99915.94;;;14.43;23.11
43298;BME280;28892;55.640;37.532;2023-05-09T14:25:26;99909.28;;;14.32;23.24
43298;BME280;28892;55.640;37.532;2023-05-09T14:28:09;99917.34;;;14.39;23.55
43298;BME280;28892;55.640;37.532;2023-05-09T14:30:40;99917.00;;;14.27;23.47
43298;BME280;28892;55.640;37.532;2023-05-09T14:33:09;99905.88;;;14.23;23.39